createdAt,value
2022-08-26T00:01:30.625Z,0.93
2022-08-26T00:03:57.545Z,1.10
2022-08-26T00:06:24.922Z,0.80
2022-08-26T00:08:51.819Z,0.77
2022-08-26T00:11:26.542Z,0.60
2022-08-26T00:13:56.707Z,0.93
2022-08-26T00:16:28.253Z,0.90
2022-08-26T00:18:56.070Z,0.80
2022-08-26T00:21:22.601Z,0.90
2022-08-26T00:23:50.086Z,0.83
2022-08-26T00:26:16.589Z,1.07
2022-08-26T00:28:43.034Z,0.90
2022-08-26T00:31:11.111Z,1.43
2022-08-26T00:33:38.635Z,0.73
2022-08-26T00:36:05.959Z,0.73
2022-08-26T00:38:32.638Z,0.63
2022-08-26T00:40:59.536Z,1.00
2022-08-26T00:43:26.806Z,0.87
2022-08-26T00:46:05.039Z,0.90
2022-08-26T00:48:33.923Z,0.70
2022-08-26T00:51:11.805Z,0.90
2022-08-26T00:53:45.667Z,1.10
2022-08-26T00:56:24.160Z,0.80
2022-08-26T00:58:51.097Z,1.30
2022-08-26T01:01:18.221Z,1.30
2022-08-26T01:03:49.733Z,1.10
2022-08-26T01:06:16.268Z,1.00
2022-08-26T01:08:43.433Z,0.80
2022-08-26T01:11:11.371Z,1.13
2022-08-26T01:13:38.738Z,0.80
2022-08-26T01:16:10.496Z,1.33
2022-08-26T01:18:37.162Z,1.33
2022-08-26T01:21:20.178Z,1.10
2022-08-26T01:23:50.183Z,0.70
2022-08-26T01:26:21.954Z,0.80
2022-08-26T01:28:51.860Z,0.90
2022-08-26T01:31:22.647Z,0.80
2022-08-26T01:34:13.317Z,0.90
2022-08-26T01:36:40.627Z,0.70
2022-08-26T01:39:08.655Z,0.83
2022-08-26T01:41:37.969Z,0.87
2022-08-26T01:44:09.825Z,0.80
2022-08-26T01:46:36.944Z,0.90
2022-08-26T01:49:06.751Z,0.70
2022-08-26T01:51:37.243Z,0.67
2022-08-26T01:54:06.162Z,0.80
2022-08-26T01:56:36.446Z,0.80
2022-08-26T01:59:06.938Z,0.77
2022-08-26T02:01:36.242Z,0.70
2022-08-26T02:04:35.394Z,0.63
2022-08-26T02:07:08.270Z,0.70
2022-08-26T02:09:41.351Z,0.60
2022-08-26T02:12:09.164Z,1.07
2022-08-26T02:14:43.790Z,0.87
2022-08-26T02:17:11.209Z,0.87
2022-08-26T02:19:41.657Z,1.30
2022-08-26T02:22:13.944Z,0.73
2022-08-26T02:24:56.193Z,0.70
2022-08-26T02:27:31.976Z,1.00
2022-08-26T02:30:08.292Z,0.83
2022-08-26T02:32:34.903Z,0.50
2022-08-26T02:35:01.799Z,0.83
2022-08-26T02:37:30.854Z,0.63
2022-08-26T02:39:57.698Z,0.70
2022-08-26T02:42:24.154Z,1.00
2022-08-26T02:44:51.778Z,0.60
2022-08-26T02:47:18.251Z,0.57
2022-08-26T02:49:47.396Z,0.67
2022-08-26T02:52:14.456Z,0.80
2022-08-26T02:54:41.193Z,0.73
2022-08-26T02:57:08.060Z,0.40
2022-08-26T02:59:36.041Z,0.77
2022-08-26T03:02:03.255Z,0.97
2022-08-26T03:04:31.080Z,0.80
2022-08-26T03:07:00.047Z,0.77
2022-08-26T03:09:27.116Z,0.77
2022-08-26T03:11:55.301Z,0.67
2022-08-26T03:14:23.937Z,0.90
2022-08-26T03:16:54.440Z,0.60
2022-08-26T03:19:23.314Z,0.57
2022-08-26T03:21:50.117Z,0.63
2022-08-26T03:24:18.813Z,0.50
2022-08-26T03:26:52.554Z,0.60
2022-08-26T03:29:38.118Z,0.60
2022-08-26T03:32:06.172Z,0.30
2022-08-26T03:34:32.986Z,0.73
2022-08-26T03:36:59.577Z,0.80
2022-08-26T03:39:26.332Z,0.57
2022-08-26T03:41:53.701Z,0.80
2022-08-26T03:44:20.578Z,0.70
2022-08-26T03:46:47.074Z,0.60
2022-08-26T03:49:15.155Z,0.83
2022-08-26T03:51:42.087Z,0.40
2022-08-26T03:54:09.255Z,0.73
2022-08-26T03:56:36.653Z,1.20
2022-08-26T03:59:04.943Z,0.50
2022-08-26T04:01:34.232Z,0.83
2022-08-26T04:04:01.414Z,0.60
2022-08-26T04:06:42.403Z,0.80
2022-08-26T04:09:20.735Z,0.63
2022-08-26T04:11:50.493Z,0.93
2022-08-26T04:14:21.162Z,0.70
2022-08-26T04:16:48.692Z,0.77
2022-08-26T04:19:16.650Z,0.77
2022-08-26T04:21:45.025Z,0.90
2022-08-26T04:24:14.063Z,0.80
2022-08-26T04:26:42.820Z,0.93
2022-08-26T04:29:18.101Z,1.53
2022-08-26T04:31:44.956Z,1.37
2022-08-26T04:34:11.488Z,0.63
2022-08-26T04:36:41.085Z,0.83
2022-08-26T04:39:11.975Z,1.07
2022-08-26T04:41:39.625Z,1.10
2022-08-26T04:44:07.793Z,0.70
2022-08-26T04:46:34.882Z,0.60
2022-08-26T04:49:01.521Z,0.90
2022-08-26T04:51:28.438Z,0.80
2022-08-26T04:54:01.070Z,0.73
2022-08-26T04:56:30.749Z,0.90
2022-08-26T04:58:57.229Z,0.60
2022-08-26T05:01:24.054Z,0.80
2022-08-26T05:03:51.441Z,0.90
2022-08-26T05:06:19.954Z,1.13
2022-08-26T05:08:46.785Z,1.03
2022-08-26T05:11:13.545Z,0.60
2022-08-26T05:13:40.374Z,0.50
2022-08-26T05:16:11.633Z,0.63
2022-08-26T05:18:39.543Z,0.83
2022-08-26T05:21:07.171Z,1.10
2022-08-26T05:23:35.848Z,0.70
2022-08-26T05:26:06.671Z,0.83
2022-08-26T05:28:34.647Z,0.60
2022-08-26T05:31:02.088Z,0.83
2022-08-26T05:33:29.346Z,0.60
2022-08-26T05:35:55.826Z,0.50
2022-08-26T05:38:23.382Z,0.73
2022-08-26T05:40:52.894Z,0.70
2022-08-26T05:43:20.215Z,0.70
2022-08-26T05:45:49.228Z,0.73
2022-08-26T05:48:18.512Z,0.80
2022-08-26T05:50:51.638Z,0.60
2022-08-26T05:53:20.748Z,0.50
2022-08-26T05:55:50.579Z,0.70
2022-08-26T05:58:20.197Z,0.60
2022-08-26T06:01:07.596Z,0.40
2022-08-26T06:03:36.160Z,1.00
2022-08-26T06:06:04.508Z,0.90
2022-08-26T06:08:33.933Z,0.80
2022-08-26T06:11:04.453Z,0.50
2022-08-26T06:13:33.647Z,0.90
2022-08-26T06:16:05.363Z,0.77
2022-08-26T06:18:36.335Z,0.50
2022-08-26T06:21:24.690Z,1.07
2022-08-26T06:24:11.465Z,0.83
2022-08-26T06:26:39.419Z,0.90
2022-08-26T06:29:09.678Z,0.60
2022-08-26T06:31:36.968Z,0.87
2022-08-26T06:34:10.351Z,0.80
2022-08-26T06:36:37.870Z,0.60
2022-08-26T06:39:10.024Z,0.87
2022-08-26T06:41:43.135Z,0.93
2022-08-26T06:44:09.952Z,0.60
2022-08-26T06:46:36.698Z,0.60
2022-08-26T06:49:03.402Z,0.70
2022-08-26T06:51:33.221Z,0.50
2022-08-26T06:54:01.949Z,0.47
2022-08-26T06:56:34.676Z,0.70
2022-08-26T06:59:01.861Z,0.50
2022-08-26T07:01:32.099Z,0.40
2022-08-26T07:04:00.832Z,0.40
2022-08-26T07:06:28.253Z,0.60
2022-08-26T07:09:04.745Z,0.40
2022-08-26T07:11:35.060Z,0.40
2022-08-26T07:14:01.661Z,0.60
2022-08-26T07:16:28.877Z,0.53
2022-08-26T07:18:56.108Z,0.43
2022-08-26T07:21:24.469Z,0.30
2022-08-26T07:23:51.705Z,0.57
2022-08-26T07:26:22.817Z,0.50
2022-08-26T07:28:53.465Z,0.40
2022-08-26T07:31:25.178Z,0.43
2022-08-26T07:33:52.089Z,0.30
2022-08-26T07:36:19.478Z,0.50
2022-08-26T07:38:48.014Z,0.60
2022-08-26T07:41:17.403Z,1.00
2022-08-26T07:43:45.421Z,0.70
2022-08-26T07:46:20.737Z,0.70
2022-08-26T07:48:54.138Z,0.57
2022-08-26T07:51:21.922Z,0.63
2022-08-26T07:53:52.304Z,0.80
2022-08-26T07:56:19.608Z,0.60
2022-08-26T07:58:50.509Z,0.50
2022-08-26T08:01:18.454Z,0.70
2022-08-26T08:03:45.349Z,0.60
2022-08-26T08:06:11.993Z,0.60
2022-08-26T08:08:40.734Z,0.47
2022-08-26T08:11:07.502Z,0.60
2022-08-26T08:13:37.426Z,0.90
2022-08-26T08:16:05.026Z,0.53
2022-08-26T08:18:31.731Z,0.40
2022-08-26T08:21:10.818Z,0.40
2022-08-26T08:23:45.281Z,0.60
2022-08-26T08:26:11.899Z,0.67
2022-08-26T08:28:39.739Z,1.30
2022-08-26T08:31:08.167Z,0.80
2022-08-26T08:33:35.303Z,0.70
2022-08-26T08:36:01.974Z,0.63
2022-08-26T08:38:29.580Z,0.30
2022-08-26T08:40:56.060Z,0.80
2022-08-26T08:43:40.189Z,0.67
2022-08-26T08:46:16.447Z,0.40
2022-08-26T08:48:48.270Z,0.80
2022-08-26T08:51:33.961Z,1.23
2022-08-26T08:54:02.640Z,1.00
2022-08-26T08:56:38.949Z,0.60
2022-08-26T08:59:12.959Z,0.50
2022-08-26T09:01:52.451Z,0.50
2022-08-26T09:04:54.344Z,0.53
2022-08-26T09:07:26.103Z,0.70
2022-08-26T09:10:00.886Z,0.87
2022-08-26T09:12:31.088Z,0.80
2022-08-26T09:15:07.745Z,0.90
2022-08-26T09:17:49.459Z,0.63
2022-08-26T09:20:42.145Z,0.70
2022-08-26T09:23:12.301Z,0.90
2022-08-26T09:25:50.147Z,1.00
2022-08-26T09:28:20.193Z,0.93
2022-08-26T09:30:59.075Z,0.90
2022-08-26T09:33:31.431Z,0.67
2022-08-26T09:36:26.285Z,1.10
2022-08-26T09:38:54.320Z,0.83
2022-08-26T09:41:27.651Z,0.77
2022-08-26T09:44:33.158Z,1.17
2022-08-26T09:47:05.559Z,1.03
2022-08-26T09:49:36.428Z,0.93
2022-08-26T09:52:13.677Z,0.60
2022-08-26T09:54:44.307Z,1.00
2022-08-26T09:57:27.270Z,0.90
2022-08-26T09:59:55.491Z,0.70
2022-08-26T10:02:36.961Z,0.97
2022-08-26T10:05:09.652Z,0.90
2022-08-26T10:07:50.346Z,0.70
2022-08-26T10:10:33.034Z,0.80
2022-08-26T10:13:24.014Z,0.63
2022-08-26T10:16:11.096Z,0.90
2022-08-26T10:18:47.719Z,1.23
2022-08-26T10:21:23.512Z,0.97
2022-08-26T10:23:55.340Z,1.07
2022-08-26T10:26:35.974Z,1.00
2022-08-26T10:29:12.277Z,1.00
2022-08-26T10:31:51.622Z,1.00
2022-08-26T10:34:18.788Z,1.43
2022-08-26T10:37:14.460Z,1.20
2022-08-26T10:40:00.914Z,0.60
2022-08-26T10:42:54.851Z,0.90
2022-08-26T10:45:26.169Z,0.80
2022-08-26T10:48:02.920Z,0.83
2022-08-26T10:50:38.295Z,0.80
2022-08-26T10:53:17.795Z,0.60
2022-08-26T10:55:56.327Z,1.00
2022-08-26T10:58:38.381Z,0.90
2022-08-26T11:01:34.830Z,0.90
2022-08-26T11:04:28.802Z,0.80
2022-08-26T11:07:34.264Z,0.93
2022-08-26T11:10:10.282Z,0.80
2022-08-26T11:12:37.366Z,0.80
2022-08-26T11:15:10.178Z,0.90
2022-08-26T11:17:45.864Z,1.13
2022-08-26T11:20:34.084Z,0.90
2022-08-26T11:23:13.150Z,0.63
2022-08-26T11:25:57.954Z,0.70
2022-08-26T11:28:44.096Z,1.07
2022-08-26T11:31:31.769Z,1.20
2022-08-26T11:34:07.130Z,0.90
2022-08-26T11:36:54.397Z,0.60
2022-08-26T11:39:33.354Z,0.60
2022-08-26T11:42:32.499Z,0.70
2022-08-26T11:45:01.382Z,1.10
2022-08-26T11:47:31.912Z,0.90
2022-08-26T11:50:20.163Z,0.70
2022-08-26T11:52:56.366Z,1.17
2022-08-26T11:55:24.234Z,1.07
2022-08-26T11:57:57.589Z,0.90
2022-08-26T12:00:33.726Z,0.67
2022-08-26T12:03:06.070Z,0.83
2022-08-26T12:05:42.456Z,1.30
2022-08-26T12:08:12.635Z,0.87
2022-08-26T12:10:40.125Z,0.77
2022-08-26T12:13:07.203Z,0.87
2022-08-26T12:15:35.491Z,1.00
2022-08-26T12:18:29.298Z,0.63
2022-08-26T12:20:59.384Z,0.97
2022-08-26T12:23:34.948Z,0.67
2022-08-26T12:26:21.021Z,0.70
2022-08-26T12:28:59.758Z,0.70
2022-08-26T12:31:28.197Z,1.00
2022-08-26T12:33:59.166Z,0.87
2022-08-26T12:36:41.381Z,1.07
2022-08-26T12:39:10.627Z,0.67
2022-08-26T12:41:48.122Z,0.90
2022-08-26T12:44:53.099Z,0.77
2022-08-26T12:47:43.459Z,0.90
2022-08-26T12:50:18.861Z,1.00
2022-08-26T12:53:01.723Z,0.80
2022-08-26T12:55:41.336Z,0.93
2022-08-26T12:58:21.207Z,1.00
2022-08-26T13:01:18.603Z,0.90
2022-08-26T13:03:46.040Z,0.83
2022-08-26T13:06:22.256Z,0.97
2022-08-26T13:08:54.473Z,0.60
2022-08-26T13:11:29.441Z,0.60
2022-08-26T13:14:08.187Z,0.97
2022-08-26T13:16:36.651Z,1.00
2022-08-26T13:19:12.224Z,1.33
2022-08-26T13:21:56.412Z,1.30
2022-08-26T13:24:28.697Z,0.70
2022-08-26T13:26:55.254Z,0.97
2022-08-26T13:29:22.133Z,1.13
2022-08-26T13:31:49.149Z,1.00
2022-08-26T13:34:19.200Z,1.17
2022-08-26T13:36:47.710Z,0.97
2022-08-26T13:39:14.517Z,0.90
2022-08-26T13:41:41.143Z,1.03
2022-08-26T13:44:07.677Z,1.00
2022-08-26T13:46:34.354Z,1.43
2022-08-26T13:49:02.175Z,1.00
2022-08-26T13:51:29.959Z,0.70
2022-08-26T13:53:57.417Z,1.30
2022-08-26T13:56:27.521Z,0.90
2022-08-26T13:58:54.025Z,1.13
2022-08-26T14:01:20.623Z,0.80
2022-08-26T14:03:47.253Z,0.97
2022-08-26T14:06:14.182Z,0.90
2022-08-26T14:08:41.908Z,0.90
2022-08-26T14:11:08.718Z,0.97
2022-08-26T14:13:35.471Z,0.90
2022-08-26T14:16:05.153Z,0.87
2022-08-26T14:18:36.323Z,1.20
2022-08-26T14:21:08.128Z,0.90
2022-08-26T14:23:34.982Z,1.10
2022-08-26T14:26:03.922Z,1.33
2022-08-26T14:28:30.431Z,0.77
2022-08-26T14:30:58.307Z,0.67
2022-08-26T14:33:28.695Z,1.00
2022-08-26T14:36:15.203Z,0.80
2022-08-26T14:38:41.975Z,1.10
2022-08-26T14:41:09.484Z,1.10
2022-08-26T14:43:37.184Z,0.90
2022-08-26T14:46:04.182Z,1.20
2022-08-26T14:48:30.676Z,1.20
2022-08-26T14:50:57.171Z,0.90
2022-08-26T14:53:42.280Z,1.07
2022-08-26T14:56:09.733Z,0.83
2022-08-26T14:58:38.384Z,1.63
2022-08-26T15:01:05.051Z,1.17
2022-08-26T15:03:31.521Z,1.20
2022-08-26T15:05:58.042Z,1.43
2022-08-26T15:08:24.562Z,0.93
2022-08-26T15:10:51.120Z,1.10
2022-08-26T15:13:17.599Z,1.10
2022-08-26T15:15:44.530Z,0.90
2022-08-26T15:18:11.212Z,1.10
2022-08-26T15:20:38.255Z,1.13
2022-08-26T15:23:06.592Z,1.20
2022-08-26T15:25:33.318Z,1.07
2022-08-26T15:27:59.826Z,1.00
2022-08-26T15:30:27.339Z,1.50
2022-08-26T15:32:53.832Z,1.63
2022-08-26T15:35:20.294Z,1.10
2022-08-26T15:37:46.858Z,1.47
2022-08-26T15:40:13.816Z,1.50
2022-08-26T15:42:40.388Z,1.70
2022-08-26T15:45:07.462Z,1.27
2022-08-26T15:47:34.386Z,1.67
2022-08-26T15:50:20.550Z,1.47
2022-08-26T15:52:47.977Z,1.37
2022-08-26T15:55:14.516Z,1.27
2022-08-26T15:57:41.129Z,1.20
2022-08-26T16:00:09.588Z,1.40
2022-08-26T16:02:36.084Z,1.20
2022-08-26T16:05:02.752Z,1.63
2022-08-26T16:07:31.745Z,1.60
2022-08-26T16:09:58.499Z,1.40
2022-08-26T16:12:24.979Z,1.50
2022-08-26T16:14:51.572Z,1.67
2022-08-26T16:17:20.606Z,1.50
2022-08-26T16:19:47.116Z,1.60
2022-08-26T16:22:13.679Z,1.50
2022-08-26T16:24:40.168Z,1.60
2022-08-26T16:27:06.807Z,1.20
2022-08-26T16:29:33.400Z,1.90
2022-08-26T16:31:59.930Z,1.43
2022-08-26T16:34:26.357Z,1.27
2022-08-26T16:36:53.108Z,1.57
2022-08-26T16:39:19.588Z,1.63
2022-08-26T16:41:46.100Z,1.50
2022-08-26T16:44:12.803Z,1.60
2022-08-26T16:46:39.725Z,1.50
2022-08-26T16:49:06.571Z,1.30
2022-08-26T16:51:38.093Z,1.33
2022-08-26T16:54:06.976Z,1.60
2022-08-26T16:56:34.525Z,1.33
2022-08-26T16:59:02.416Z,1.80
2022-08-26T17:01:29.027Z,1.40
2022-08-26T17:03:55.615Z,1.80
2022-08-26T17:06:22.083Z,1.70
2022-08-26T17:08:48.614Z,1.70
2022-08-26T17:11:15.567Z,1.00
2022-08-26T17:13:42.623Z,1.57
2022-08-26T17:16:14.406Z,1.27
2022-08-26T17:18:41.339Z,1.67
2022-08-26T17:21:11.555Z,1.50
2022-08-26T17:23:39.091Z,1.60
2022-08-26T17:26:05.736Z,1.67
2022-08-26T17:28:32.883Z,1.70
2022-08-26T17:31:00.123Z,1.50
2022-08-26T17:33:27.703Z,1.27
2022-08-26T17:35:55.392Z,1.67
2022-08-26T17:38:22.493Z,1.50
2022-08-26T17:40:49.616Z,1.50
2022-08-26T17:43:16.707Z,1.60
2022-08-26T17:45:43.422Z,1.47
2022-08-26T17:48:11.011Z,1.33
2022-08-26T17:50:42.666Z,1.00
2022-08-26T17:53:18.466Z,1.20
2022-08-26T17:55:45.727Z,1.10
2022-08-26T17:58:14.555Z,1.03
2022-08-26T18:00:48.170Z,1.23
2022-08-26T18:03:15.250Z,1.47
2022-08-26T18:05:42.747Z,1.40
2022-08-26T18:08:09.782Z,1.90
2022-08-26T18:10:36.255Z,1.63
2022-08-26T18:13:02.789Z,1.50
2022-08-26T18:15:29.356Z,1.23
2022-08-26T18:17:55.791Z,1.37
2022-08-26T18:20:22.392Z,1.50
2022-08-26T18:22:48.913Z,0.83
2022-08-26T18:25:18.978Z,1.30
2022-08-26T18:27:45.389Z,1.00
2022-08-26T18:30:20.660Z,1.33
2022-08-26T18:32:48.301Z,1.60
2022-08-26T18:35:15.231Z,1.33
2022-08-26T18:37:41.936Z,1.63
2022-08-26T18:40:10.778Z,1.50
2022-08-26T18:42:37.390Z,1.73
2022-08-26T18:45:05.960Z,1.47
2022-08-26T18:47:32.903Z,1.50
2022-08-26T18:50:00.841Z,2.00
2022-08-26T18:52:27.677Z,1.33
2022-08-26T18:54:54.259Z,1.00
2022-08-26T18:57:20.733Z,1.13
2022-08-26T18:59:47.132Z,1.07
2022-08-26T19:02:13.698Z,1.30
2022-08-26T19:04:40.290Z,1.27
2022-08-26T19:07:07.410Z,1.50
2022-08-26T19:09:34.221Z,1.43
2022-08-26T19:12:03.723Z,1.03
2022-08-26T19:14:31.628Z,1.20
2022-08-26T19:16:58.693Z,1.07
2022-08-26T19:19:25.199Z,1.30
2022-08-26T19:21:52.552Z,1.57
2022-08-26T19:24:20.558Z,1.23
2022-08-26T19:26:57.894Z,1.40
2022-08-26T19:29:27.269Z,1.47
2022-08-26T19:31:53.804Z,0.97
2022-08-26T19:34:20.839Z,1.20
2022-08-26T19:36:48.418Z,1.30
2022-08-26T19:39:14.968Z,1.40
2022-08-26T19:41:41.398Z,2.23
2022-08-26T19:44:34.576Z,1.50
2022-08-26T19:47:03.500Z,1.43
2022-08-26T19:49:29.971Z,1.20
2022-08-26T19:51:56.648Z,1.10
2022-08-26T19:54:23.159Z,1.23
2022-08-26T19:56:49.896Z,1.60
2022-08-26T19:59:17.414Z,1.30
2022-08-26T20:01:43.945Z,1.40
2022-08-26T20:04:10.481Z,1.60
2022-08-26T20:06:36.877Z,1.17
2022-08-26T20:09:03.381Z,1.20
2022-08-26T20:11:29.808Z,1.10
2022-08-26T20:13:57.140Z,1.17
2022-08-26T20:16:23.625Z,1.17
2022-08-26T20:19:08.860Z,1.10
2022-08-26T20:21:39.204Z,1.27
2022-08-26T20:24:13.031Z,1.60
2022-08-26T20:26:41.868Z,1.67
2022-08-26T20:29:10.683Z,1.50
2022-08-26T20:31:38.373Z,1.23
2022-08-26T20:34:05.997Z,1.63
2022-08-26T20:36:33.582Z,1.20
2022-08-26T20:39:00.415Z,1.40
2022-08-26T20:41:27.579Z,1.20
2022-08-26T20:43:55.059Z,1.40
2022-08-26T20:46:24.885Z,1.17
2022-08-26T20:48:53.082Z,1.20
2022-08-26T20:51:20.198Z,1.10
2022-08-26T20:53:46.940Z,1.47
2022-08-26T20:56:15.177Z,1.50
2022-08-26T20:58:42.228Z,1.70
2022-08-26T21:01:18.168Z,1.80
2022-08-26T21:03:45.742Z,2.20
2022-08-26T21:06:12.542Z,1.70
2022-08-26T21:08:42.655Z,1.60
2022-08-26T21:11:10.103Z,1.60
2022-08-26T21:13:54.431Z,1.57
2022-08-26T21:16:24.689Z,1.73
2022-08-26T21:18:51.434Z,1.07
2022-08-26T21:21:18.671Z,1.57
2022-08-26T21:23:51.673Z,2.23
2022-08-26T21:26:18.238Z,2.10
2022-08-26T21:28:46.291Z,1.43
2022-08-26T21:31:16.419Z,1.57
2022-08-26T21:33:43.103Z,1.60
2022-08-26T21:36:11.542Z,1.47
2022-08-26T21:38:38.306Z,1.43
2022-08-26T21:41:08.438Z,1.80
2022-08-26T21:43:36.705Z,2.47
2022-08-26T21:46:14.444Z,2.00
2022-08-26T21:48:50.528Z,1.80
2022-08-26T21:51:19.962Z,1.30
2022-08-26T21:53:46.861Z,1.50
2022-08-26T21:56:17.999Z,1.30
2022-08-26T21:58:44.816Z,2.07
2022-08-26T22:01:14.873Z,2.33
2022-08-26T22:03:47.575Z,2.37
2022-08-26T22:06:17.474Z,1.97
2022-08-26T22:08:44.051Z,1.80
2022-08-26T22:11:11.007Z,1.37
2022-08-26T22:13:39.479Z,2.00
2022-08-26T22:16:06.962Z,1.77
2022-08-26T22:18:34.911Z,2.27
2022-08-26T22:21:05.396Z,2.10
2022-08-26T22:23:32.582Z,1.53
2022-08-26T22:25:59.828Z,1.80
2022-08-26T22:28:27.092Z,1.60
2022-08-26T22:30:55.651Z,1.60
2022-08-26T22:33:22.959Z,1.70
2022-08-26T22:35:50.986Z,1.40
2022-08-26T22:38:17.843Z,1.30
2022-08-26T22:40:50.429Z,1.40
2022-08-26T22:43:18.435Z,1.30
2022-08-26T22:45:47.924Z,1.60
2022-08-26T22:48:17.953Z,1.50
2022-08-26T22:50:46.359Z,1.47
2022-08-26T22:53:13.475Z,1.60
2022-08-26T22:55:39.971Z,1.80
2022-08-26T22:58:06.965Z,1.50
2022-08-26T23:00:34.372Z,1.20
2022-08-26T23:03:02.262Z,1.70
2022-08-26T23:05:29.611Z,1.73
2022-08-26T23:07:56.827Z,1.60
2022-08-26T23:10:24.272Z,1.60
2022-08-26T23:12:52.452Z,1.40
2022-08-26T23:15:20.934Z,1.50
2022-08-26T23:17:48.374Z,1.60
2022-08-26T23:20:25.147Z,1.13
2022-08-26T23:22:52.639Z,1.60
2022-08-26T23:25:19.632Z,1.47
2022-08-26T23:27:47.133Z,1.60
2022-08-26T23:30:19.106Z,1.07
2022-08-26T23:32:45.991Z,1.40
2022-08-26T23:35:14.344Z,1.60
2022-08-26T23:37:44.156Z,1.40
2022-08-26T23:40:17.426Z,1.30
2022-08-26T23:42:44.377Z,1.57
2022-08-26T23:45:13.528Z,1.90
2022-08-26T23:47:41.237Z,1.70
2022-08-26T23:50:08.748Z,1.60
2022-08-26T23:52:53.884Z,1.40
2022-08-26T23:55:20.713Z,1.50
2022-08-26T23:57:47.392Z,1.90
